createdAt,value
2018-09-08T00:01:09.195Z,16.29
2018-09-08T00:03:37.650Z,16.22
2018-09-08T00:06:06.150Z,16.29
2018-09-08T00:08:35.654Z,16.34
2018-09-08T00:11:04.191Z,16.24
2018-09-08T00:13:32.617Z,16.17
2018-09-08T00:16:06.478Z,16.12
2018-09-08T00:18:40.164Z,16.07
2018-09-08T00:21:13.974Z,16.02
2018-09-08T00:23:47.687Z,15.99
2018-09-08T00:26:21.374Z,16.02
2018-09-08T00:29:56.091Z,15.96
2018-09-08T00:32:24.430Z,15.92
2018-09-08T00:34:52.767Z,15.81
2018-09-08T00:37:22.183Z,15.77
2018-09-08T00:39:51.676Z,15.71
2018-09-08T00:42:20.381Z,15.76
2018-09-08T00:44:48.756Z,15.76
2018-09-08T00:47:17.123Z,15.68
2018-09-08T00:49:45.440Z,15.74
2018-09-08T00:52:13.766Z,15.77
2018-09-08T00:54:42.100Z,15.78
2018-09-08T00:57:10.474Z,15.70
2018-09-08T00:59:38.824Z,15.60
2018-09-08T01:02:07.265Z,15.59
2018-09-08T01:04:37.404Z,15.57
2018-09-08T01:07:09.934Z,15.45
2018-09-08T01:09:38.513Z,15.42
2018-09-08T01:12:06.898Z,15.40
2018-09-08T01:14:35.230Z,15.41
2018-09-08T01:17:03.560Z,15.32
2018-09-08T01:19:31.887Z,15.39
2018-09-08T01:22:00.234Z,15.37
2018-09-08T01:24:31.248Z,15.22
2018-09-08T01:26:59.625Z,15.28
2018-09-08T01:29:27.977Z,15.30
2018-09-08T01:31:56.308Z,15.23
2018-09-08T01:34:24.628Z,15.33
2018-09-08T01:36:53.202Z,15.33
2018-09-08T01:39:21.781Z,15.36
2018-09-08T01:41:50.136Z,15.33
2018-09-08T01:44:18.484Z,15.37
2018-09-08T01:46:47.019Z,15.35
2018-09-08T01:49:15.358Z,15.36
2018-09-08T01:51:43.863Z,15.33
2018-09-08T01:54:12.381Z,15.35
2018-09-08T01:56:40.945Z,15.34
2018-09-08T01:59:09.556Z,15.30
2018-09-08T02:01:37.928Z,15.38
2018-09-08T02:04:06.263Z,15.31
2018-09-08T02:06:34.584Z,15.36
2018-09-08T02:09:03.167Z,15.35
2018-09-08T02:11:31.552Z,15.30
2018-09-08T02:13:59.915Z,15.30
2018-09-08T02:16:28.294Z,15.38
2018-09-08T02:18:56.664Z,15.43
2018-09-08T02:21:25.024Z,15.37
2018-09-08T02:23:53.339Z,15.41
2018-09-08T02:26:21.685Z,15.30
2018-09-08T02:28:50.159Z,15.23
2018-09-08T02:31:18.505Z,15.29
2018-09-08T02:33:46.859Z,15.19
2018-09-08T02:36:15.208Z,15.27
2018-09-08T02:38:43.588Z,15.28
2018-09-08T02:41:11.952Z,15.24
2018-09-08T02:43:40.306Z,15.25
2018-09-08T02:46:08.684Z,15.21
2018-09-08T02:48:37.044Z,15.20
2018-09-08T02:51:04.315Z,15.22
2018-09-08T02:53:31.583Z,15.18
2018-09-08T02:55:58.845Z,15.11
2018-09-08T02:58:26.100Z,15.15
2018-09-08T03:00:53.379Z,15.08
2018-09-08T03:03:20.650Z,14.99
2018-09-08T03:05:47.901Z,15.07
2018-09-08T03:08:15.151Z,15.00
2018-09-08T03:10:42.406Z,14.89
2018-09-08T03:13:09.659Z,14.97
2018-09-08T03:15:36.913Z,14.85
2018-09-08T03:18:04.165Z,14.79
2018-09-08T03:20:31.448Z,14.90
2018-09-08T03:22:58.701Z,14.80
2018-09-08T03:25:25.958Z,14.78
2018-09-08T03:27:53.234Z,14.66
2018-09-08T03:30:20.504Z,14.53
2018-09-08T03:32:47.753Z,14.48
2018-09-08T03:35:15.005Z,14.48
2018-09-08T03:37:42.261Z,14.47
2018-09-08T03:40:09.498Z,14.51
2018-09-08T03:42:36.764Z,14.56
2018-09-08T03:45:04.008Z,14.55
2018-09-08T03:47:31.255Z,14.40
2018-09-08T03:49:58.508Z,14.29
2018-09-08T03:52:25.896Z,14.28
2018-09-08T03:54:53.148Z,14.28
2018-09-08T03:57:20.400Z,14.18
2018-09-08T03:59:47.661Z,14.13
2018-09-08T04:02:14.904Z,14.03
2018-09-08T04:04:43.360Z,14.10
2018-09-08T04:07:11.690Z,14.09
2018-09-08T04:09:40.480Z,13.93
2018-09-08T04:12:08.840Z,14.08
2018-09-08T04:14:37.238Z,14.17
2018-09-08T04:17:05.604Z,14.18
2018-09-08T04:19:34.392Z,14.12
2018-09-08T04:22:02.768Z,14.13
2018-09-08T04:24:31.179Z,14.02
2018-09-08T04:26:59.517Z,14.00
2018-09-08T04:29:27.927Z,13.89
2018-09-08T04:31:56.250Z,13.98
2018-09-08T04:34:24.628Z,14.01
2018-09-08T04:36:53.414Z,13.96
2018-09-08T04:39:21.763Z,13.95
2018-09-08T04:41:50.108Z,13.98
2018-09-08T04:44:18.460Z,13.94
2018-09-08T04:46:47.069Z,13.95
2018-09-08T04:49:15.415Z,13.86
2018-09-08T04:51:43.815Z,13.88
2018-09-08T04:54:12.171Z,13.89
2018-09-08T04:56:40.503Z,13.89
2018-09-08T04:59:08.849Z,13.80
2018-09-08T05:01:37.204Z,13.82
2018-09-08T05:04:05.520Z,13.84
2018-09-08T05:06:33.864Z,13.86
2018-09-08T05:09:02.212Z,13.90
2018-09-08T05:11:30.570Z,13.81
2018-09-08T05:13:59.338Z,13.90
2018-09-08T05:16:27.685Z,14.02
2018-09-08T05:18:56.033Z,14.00
2018-09-08T05:21:24.381Z,14.01
2018-09-08T05:23:52.721Z,14.01
2018-09-08T05:26:21.052Z,14.14
2018-09-08T05:28:49.480Z,14.19
2018-09-08T05:31:17.806Z,14.28
2018-09-08T05:33:46.199Z,14.44
2018-09-08T05:36:14.599Z,14.47
2018-09-08T05:38:42.958Z,14.60
2018-09-08T05:41:11.356Z,14.60
2018-09-08T05:43:39.687Z,14.74
2018-09-08T05:46:08.046Z,14.84
2018-09-08T05:48:36.852Z,14.90
2018-09-08T05:51:05.254Z,15.11
2018-09-08T05:53:33.809Z,15.23
2018-09-08T05:56:02.124Z,15.33
2018-09-08T05:58:30.532Z,15.42
2018-09-08T06:00:59.484Z,15.49
2018-09-08T06:03:27.854Z,15.53
2018-09-08T06:05:56.222Z,15.61
2018-09-08T06:08:24.535Z,15.72
2018-09-08T06:10:52.880Z,15.91
2018-09-08T06:13:21.206Z,16.06
2018-09-08T06:15:49.534Z,16.13
2018-09-08T06:18:18.379Z,16.35
2018-09-08T06:20:46.708Z,16.46
2018-09-08T06:23:15.048Z,16.50
2018-09-08T06:25:43.413Z,16.65
2018-09-08T06:28:11.774Z,16.85
2018-09-08T06:30:40.115Z,16.96
2018-09-08T06:33:08.487Z,17.07
2018-09-08T06:35:36.839Z,17.31
2018-09-08T06:38:05.213Z,17.50
2018-09-08T06:40:33.758Z,17.52
2018-09-08T06:43:02.114Z,17.92
2018-09-08T06:45:30.501Z,18.29
2018-09-08T06:47:59.329Z,18.27
2018-09-08T06:50:27.711Z,18.14
2018-09-08T06:52:56.209Z,18.46
2018-09-08T06:55:24.562Z,18.77
2018-09-08T06:57:52.953Z,18.61
2018-09-08T07:00:21.297Z,18.91
2018-09-08T07:02:49.628Z,19.01
2018-09-08T07:05:17.976Z,19.52
2018-09-08T07:07:46.324Z,20.21
2018-09-08T07:10:14.701Z,19.81
2018-09-08T07:12:43.081Z,20.27
2018-09-08T07:15:11.795Z,20.16
2018-09-08T07:17:40.157Z,20.57
2018-09-08T07:20:08.724Z,20.49
2018-09-08T07:22:37.142Z,20.70
2018-09-08T07:25:06.582Z,21.48
2018-09-08T07:27:34.921Z,21.42
2018-09-08T07:30:03.262Z,21.82
2018-09-08T07:32:31.616Z,21.78
2018-09-08T07:34:59.961Z,21.72
2018-09-08T07:37:28.379Z,22.21
2018-09-08T07:39:56.679Z,21.88
2018-09-08T07:42:25.020Z,22.53
2018-09-08T07:44:53.422Z,22.65
2018-09-08T07:47:21.804Z,22.45
2018-09-08T07:49:50.168Z,22.39
2018-09-08T07:52:18.647Z,22.83
2018-09-08T07:54:47.012Z,22.82
2018-09-08T07:57:15.367Z,23.31
2018-09-08T07:59:43.745Z,23.43
2018-09-08T08:02:12.127Z,23.29
2018-09-08T08:04:40.476Z,23.27
2018-09-08T08:07:14.201Z,23.50
2018-09-08T08:09:43.668Z,23.91
2018-09-08T08:12:12.264Z,23.76
2018-09-08T08:14:40.848Z,23.90
2018-09-08T08:17:09.361Z,23.69
2018-09-08T08:19:38.120Z,23.83
2018-09-08T08:22:06.503Z,24.39
2018-09-08T08:24:34.853Z,24.48
2018-09-08T08:27:03.182Z,24.63
2018-09-08T08:29:31.536Z,24.52
2018-09-08T08:31:59.882Z,25.12
2018-09-08T08:34:28.253Z,25.45
2018-09-08T08:36:56.667Z,25.47
2018-09-08T08:39:25.128Z,25.88
2018-09-08T08:41:53.484Z,25.38
2018-09-08T08:44:26.755Z,25.40
2018-09-08T08:46:55.100Z,25.62
2018-09-08T08:49:23.448Z,25.56
2018-09-08T08:52:03.125Z,26.08
2018-09-08T08:54:35.287Z,26.22
2018-09-08T08:57:03.849Z,27.01
2018-09-08T08:59:33.044Z,25.75
2018-09-08T09:02:01.476Z,26.08
2018-09-08T09:04:30.375Z,26.08
2018-09-08T09:13:58.905Z,26.60
2018-09-08T09:16:27.324Z,26.62
2018-09-08T09:19:07.163Z,27.35
2018-09-08T09:21:46.883Z,26.46
2018-09-08T09:24:26.969Z,26.87
2018-09-08T09:26:54.872Z,26.70
2018-09-08T09:29:23.259Z,26.27
2018-09-08T09:31:51.616Z,26.59
2018-09-08T09:34:20.005Z,26.95
2018-09-08T09:36:48.458Z,26.89
2018-09-08T09:39:16.911Z,27.21
2018-09-08T09:41:45.246Z,27.85
2018-09-08T09:44:15.131Z,28.32
2018-09-08T09:46:43.596Z,29.13
2018-09-08T09:49:11.949Z,29.32
2018-09-08T09:51:40.371Z,29.45
2018-09-08T09:54:08.755Z,30.01
2018-09-08T09:56:37.193Z,30.86
2018-09-08T09:59:05.597Z,31.72
2018-09-08T10:01:39.278Z,30.04
2018-09-08T10:04:07.685Z,30.55
2018-09-08T10:06:36.157Z,31.70
2018-09-08T10:09:05.578Z,33.34
2018-09-08T10:11:33.954Z,32.82
2018-09-08T10:14:02.336Z,31.42
2018-09-08T10:16:30.718Z,32.55
2018-09-08T10:18:59.150Z,32.06
2018-09-08T10:21:27.476Z,33.50
2018-09-08T10:24:05.153Z,34.11
2018-09-08T10:26:24.270Z,32.26
2018-09-08T10:28:52.739Z,32.39
2018-09-08T10:31:21.119Z,34.57
2018-09-08T10:33:49.500Z,35.25
2018-09-08T10:36:17.899Z,34.22
2018-09-08T10:38:46.231Z,33.39
2018-09-08T10:41:14.584Z,33.25
2018-09-08T10:43:42.918Z,33.82
2018-09-08T10:46:11.340Z,32.53
2018-09-08T10:48:39.705Z,31.43
2018-09-08T10:51:50.553Z,30.11
2018-09-08T10:54:18.986Z,28.51
2018-09-08T10:56:47.383Z,27.49
2018-09-08T10:59:15.713Z,27.69
2018-09-08T11:01:44.247Z,27.78
2018-09-08T11:04:12.495Z,27.09
2018-09-08T11:06:40.840Z,27.05
2018-09-08T11:09:09.234Z,26.62
2018-09-08T11:11:37.582Z,25.65
2018-09-08T11:14:05.935Z,25.59
2018-09-08T11:16:34.314Z,25.63
2018-09-08T11:19:02.664Z,25.56
2018-09-08T11:21:31.513Z,25.22
2018-09-08T11:23:59.851Z,24.83
2018-09-08T11:26:28.279Z,24.36
2018-09-08T11:28:56.679Z,24.13
2018-09-08T11:31:25.025Z,24.25
2018-09-08T11:33:53.382Z,23.70
2018-09-08T11:36:21.760Z,23.63
2018-09-08T11:38:50.125Z,23.65
2018-09-08T11:41:18.471Z,23.54
2018-09-08T11:43:46.847Z,23.35
2018-09-08T11:46:15.211Z,23.13
2018-09-08T11:48:43.602Z,23.18
2018-09-08T11:51:12.093Z,23.27
2018-09-08T11:53:40.744Z,23.32
2018-09-08T11:56:09.078Z,23.13
2018-09-08T11:58:37.460Z,23.19
2018-09-08T12:01:05.928Z,23.00
2018-09-08T12:03:34.295Z,22.77
2018-09-08T12:06:02.652Z,22.89
2018-09-08T12:08:31.046Z,22.88
2018-09-08T12:10:59.400Z,22.64
2018-09-08T12:13:27.929Z,22.58
2018-09-08T12:15:56.304Z,22.56
2018-09-08T12:18:24.844Z,22.59
2018-09-08T12:20:53.424Z,22.55
2018-09-08T12:23:21.822Z,22.43
2018-09-08T12:25:50.167Z,22.48
2018-09-08T12:28:18.541Z,22.60
2018-09-08T12:30:46.998Z,22.51
2018-09-08T12:33:15.319Z,22.47
2018-09-08T12:35:43.680Z,22.43
2018-09-08T12:38:12.008Z,22.28
2018-09-08T12:40:40.445Z,22.18
2018-09-08T12:43:08.890Z,22.27
2018-09-08T12:45:37.248Z,22.22
2018-09-08T12:48:05.697Z,22.24
2018-09-08T12:50:34.060Z,22.35
2018-09-08T12:53:02.421Z,22.31
2018-09-08T12:55:30.886Z,22.34
2018-09-08T12:57:59.232Z,22.27
2018-09-08T13:00:27.714Z,22.37
2018-09-08T13:02:56.080Z,22.41
2018-09-08T13:05:24.437Z,22.42
2018-09-08T13:07:52.796Z,22.30
2018-09-08T13:10:21.124Z,22.32
2018-09-08T13:12:49.450Z,22.34
2018-09-08T13:15:18.636Z,22.29
2018-09-08T13:17:46.992Z,22.41
2018-09-08T13:20:15.349Z,22.47
2018-09-08T13:22:43.996Z,22.58
2018-09-08T13:25:12.374Z,22.47
2018-09-08T13:27:40.709Z,22.51
2018-09-08T13:30:09.068Z,22.53
2018-09-08T13:32:37.451Z,22.56
2018-09-08T13:35:05.817Z,22.56
2018-09-08T13:37:34.146Z,22.60
2018-09-08T13:40:02.597Z,22.50
2018-09-08T13:42:30.868Z,22.58
2018-09-08T13:44:59.221Z,22.56
2018-09-08T13:47:27.630Z,22.47
2018-09-08T13:49:56.129Z,22.50
2018-09-08T13:52:24.476Z,22.47
2018-09-08T13:54:52.868Z,22.52
2018-09-08T13:57:21.262Z,22.46
2018-09-08T13:59:49.631Z,22.45
2018-09-08T14:02:18.214Z,22.37
2018-09-08T14:04:46.593Z,22.27
2018-09-08T14:07:14.960Z,22.27
2018-09-08T14:09:43.361Z,22.19
2018-09-08T14:12:11.712Z,22.28
2018-09-08T14:14:40.076Z,22.35
2018-09-08T14:17:08.474Z,22.30
2018-09-08T14:19:36.837Z,22.24
2018-09-08T14:22:05.214Z,22.21
2018-09-08T14:24:33.580Z,22.18
2018-09-08T14:27:01.983Z,22.15
2018-09-08T14:29:30.373Z,22.16
2018-09-08T14:31:58.740Z,22.13
2018-09-08T14:34:27.068Z,22.06
2018-09-08T14:36:55.415Z,22.02
2018-09-08T14:39:23.769Z,21.93
2018-09-08T14:41:52.090Z,21.79
2018-09-08T14:44:20.526Z,21.89
2018-09-08T14:46:48.889Z,21.85
2018-09-08T14:49:17.251Z,21.87
2018-09-08T14:51:45.601Z,21.87
2018-09-08T14:54:13.953Z,21.86
2018-09-08T14:56:42.390Z,21.84
2018-09-08T14:59:10.842Z,21.84
2018-09-08T15:01:39.268Z,21.84
2018-09-08T15:04:07.727Z,21.81
2018-09-08T15:06:36.120Z,21.80
2018-09-08T15:09:06.512Z,21.78
2018-09-08T15:11:35.080Z,21.75
2018-09-08T15:14:03.459Z,21.73
2018-09-08T15:16:32.042Z,21.75
2018-09-08T15:19:00.409Z,21.72
2018-09-08T15:21:28.777Z,21.70
2018-09-08T15:23:57.811Z,21.66
2018-09-08T15:26:26.362Z,21.65
2018-09-08T15:28:54.739Z,21.60
2018-09-08T15:31:23.220Z,21.57
2018-09-08T15:33:51.631Z,21.52
2018-09-08T15:36:19.975Z,21.50
2018-09-08T15:38:48.378Z,21.50
2018-09-08T15:41:16.770Z,21.44
2018-09-08T15:43:45.180Z,21.48
2018-09-08T15:46:13.531Z,21.54
2018-09-08T15:48:41.890Z,21.53
2018-09-08T15:51:10.287Z,21.56
2018-09-08T15:53:38.711Z,21.61
2018-09-08T15:56:07.192Z,21.59
2018-09-08T15:58:36.050Z,21.62
2018-09-08T16:01:04.554Z,21.58
2018-09-08T16:03:32.925Z,21.56
2018-09-08T16:06:01.315Z,21.52
2018-09-08T16:08:29.745Z,21.52
2018-09-08T16:10:58.214Z,21.54
2018-09-08T16:13:26.724Z,21.48
2018-09-08T16:15:55.062Z,21.48
2018-09-08T16:18:23.449Z,21.50
2018-09-08T16:20:51.792Z,21.49
2018-09-08T16:23:20.271Z,21.51
2018-09-08T16:25:48.668Z,21.50
2018-09-08T16:28:18.113Z,21.48
2018-09-08T16:30:46.711Z,21.29
2018-09-08T16:33:15.173Z,21.35
2018-09-08T16:35:43.541Z,21.39
2018-09-08T16:38:11.919Z,21.25
2018-09-08T16:40:40.329Z,21.24
2018-09-08T16:43:08.708Z,21.20
2018-09-08T16:45:37.313Z,21.17
2018-09-08T16:48:05.924Z,21.12
2018-09-08T16:50:34.340Z,21.11
2018-09-08T16:53:02.834Z,21.00
2018-09-08T16:55:31.284Z,20.94
2018-09-08T16:58:00.227Z,20.89
2018-09-08T17:00:28.709Z,20.87
2018-09-08T17:02:57.140Z,20.80
2018-09-08T17:05:25.516Z,20.75
2018-09-08T17:07:53.876Z,20.66
2018-09-08T17:10:22.243Z,20.64
2018-09-08T17:12:50.586Z,20.52
2018-09-08T17:15:18.932Z,20.46
2018-09-08T17:17:47.279Z,20.44
2018-09-08T17:20:15.656Z,20.42
2018-09-08T17:22:44.032Z,20.37
2018-09-08T17:25:12.422Z,20.28
2018-09-08T17:27:41.303Z,20.23
2018-09-08T17:30:09.720Z,20.07
2018-09-08T17:32:38.165Z,20.09
2018-09-08T17:35:06.715Z,20.06
2018-09-08T17:37:35.060Z,19.96
2018-09-08T17:40:03.372Z,19.84
2018-09-08T17:42:31.715Z,19.78
2018-09-08T17:45:00.098Z,19.74
2018-09-08T17:47:28.446Z,19.62
2018-09-08T17:49:56.788Z,19.62
2018-09-08T17:52:25.131Z,19.51
2018-09-08T17:54:53.474Z,19.47
2018-09-08T17:57:21.889Z,19.44
2018-09-08T17:59:50.230Z,19.38
2018-09-08T18:02:19.134Z,19.39
2018-09-08T18:04:47.488Z,19.35
2018-09-08T18:07:17.696Z,19.30
2018-09-08T18:09:46.364Z,19.27
2018-09-08T18:12:14.967Z,19.19
2018-09-08T18:14:43.453Z,19.10
2018-09-08T18:17:12.346Z,19.08
2018-09-08T18:19:40.749Z,19.10
2018-09-08T18:22:09.396Z,19.08
2018-09-08T18:24:37.800Z,19.02
2018-09-08T18:27:06.365Z,18.81
2018-09-08T18:29:34.694Z,18.86
2018-09-08T18:32:03.054Z,18.88
2018-09-08T18:34:32.079Z,18.86
2018-09-08T18:37:00.439Z,18.75
2018-09-08T18:39:28.795Z,18.76
2018-09-08T18:41:57.254Z,18.73
2018-09-08T18:44:25.598Z,18.72
2018-09-08T18:46:53.950Z,18.71
2018-09-08T18:49:22.323Z,18.68
2018-09-08T18:51:50.768Z,18.63
2018-09-08T18:54:19.126Z,18.52
2018-09-08T18:56:47.476Z,18.48
2018-09-08T18:59:15.816Z,18.47
2018-09-08T19:01:44.697Z,18.47
2018-09-08T19:04:13.146Z,18.48
2018-09-08T19:06:41.726Z,18.36
2018-09-08T19:09:10.212Z,18.40
2018-09-08T19:11:38.591Z,18.36
2018-09-08T19:14:11.095Z,18.36
2018-09-08T19:16:39.445Z,18.33
2018-09-08T19:19:07.807Z,18.28
2018-09-08T19:21:36.137Z,18.25
2018-09-08T19:24:09.864Z,18.13
2018-09-08T19:26:38.389Z,18.12
2018-09-08T19:29:11.956Z,18.01
2018-09-08T19:31:40.459Z,17.96
2018-09-08T19:34:08.850Z,17.94
2018-09-08T19:36:37.194Z,17.97
2018-09-08T19:39:08.046Z,17.99
2018-09-08T19:41:36.868Z,18.03
2018-09-08T19:44:05.247Z,18.02
2018-09-08T19:46:39.082Z,18.00
2018-09-08T19:49:07.522Z,17.95
2018-09-08T19:51:36.853Z,17.85
2018-09-08T19:54:05.209Z,17.76
2018-09-08T19:56:39.010Z,17.82
2018-09-08T19:59:07.349Z,17.71
2018-09-08T20:01:35.733Z,17.73
2018-09-08T20:04:04.116Z,17.77
2018-09-08T20:06:32.529Z,17.77
2018-09-08T20:09:00.871Z,17.72
2018-09-08T20:11:29.252Z,17.64
2018-09-08T20:13:57.630Z,17.66
2018-09-08T20:16:26.107Z,17.65
2018-09-08T20:18:54.455Z,17.65
2018-09-08T20:21:22.803Z,17.58
2018-09-08T20:23:51.182Z,17.51
2018-09-08T20:26:19.540Z,17.46
2018-09-08T20:28:48.001Z,17.50
2018-09-08T20:31:16.271Z,17.54
2018-09-08T20:33:44.640Z,17.53
2018-09-08T20:36:13.004Z,17.45
2018-09-08T20:38:41.410Z,17.49
2018-09-08T20:41:09.765Z,17.47
2018-09-08T20:43:38.186Z,17.45
2018-09-08T20:46:06.800Z,17.44
2018-09-08T20:48:35.245Z,17.48
2018-09-08T20:51:03.610Z,17.50
2018-09-08T20:53:32.005Z,17.51
2018-09-08T20:56:00.388Z,17.54
2018-09-08T20:58:28.721Z,17.57
2018-09-08T21:00:57.129Z,17.59
2018-09-08T21:03:25.477Z,17.60
2018-09-08T21:05:53.831Z,17.62
2018-09-08T21:08:22.210Z,17.66
2018-09-08T21:10:50.694Z,17.66
2018-09-08T21:13:19.036Z,17.66
2018-09-08T21:15:47.557Z,17.66
2018-09-08T21:18:16.343Z,17.70
2018-09-08T21:20:44.804Z,17.72
2018-09-08T21:23:13.305Z,17.74
2018-09-08T21:25:41.653Z,17.78
2018-09-08T21:28:10.064Z,17.79
2018-09-08T21:30:38.645Z,17.81
2018-09-08T21:33:07.151Z,17.82
2018-09-08T21:35:35.506Z,17.84
2018-09-08T21:38:03.883Z,17.86
2018-09-08T21:40:32.233Z,17.83
2018-09-08T21:43:00.579Z,17.87
2018-09-08T21:45:28.926Z,17.89
2018-09-08T21:47:57.249Z,17.86
2018-09-08T21:50:25.708Z,17.85
2018-09-08T21:52:54.051Z,17.86
2018-09-08T21:55:22.390Z,17.86
2018-09-08T21:57:50.760Z,17.83
2018-09-08T22:00:19.167Z,17.82
2018-09-08T22:02:47.500Z,17.80
2018-09-08T22:05:15.862Z,17.77
2018-09-08T22:07:44.255Z,17.77
2018-09-08T22:10:12.630Z,17.76
2018-09-08T22:12:40.965Z,17.77
2018-09-08T22:15:09.378Z,17.71
2018-09-08T22:17:37.719Z,17.74
2018-09-08T22:20:06.124Z,17.67
2018-09-08T22:22:34.546Z,17.66
2018-09-08T22:25:03.012Z,17.68
2018-09-08T22:27:31.364Z,17.66
2018-09-08T22:29:59.852Z,17.59
2018-09-08T22:32:28.204Z,17.60
2018-09-08T22:34:56.609Z,17.60
2018-09-08T22:37:24.956Z,17.59
2018-09-08T22:39:53.290Z,17.57
2018-09-08T22:42:21.620Z,17.56
2018-09-08T22:44:49.918Z,17.51
2018-09-08T22:47:18.239Z,17.52
2018-09-08T22:49:46.669Z,17.52
2018-09-08T22:52:15.001Z,17.49
2018-09-08T22:54:43.323Z,17.49
2018-09-08T22:57:11.649Z,17.46
2018-09-08T22:59:40.006Z,17.44
2018-09-08T23:02:08.404Z,17.42
2018-09-08T23:04:36.761Z,17.35
2018-09-08T23:07:05.164Z,17.39
2018-09-08T23:09:33.510Z,17.31
2018-09-08T23:12:01.842Z,17.33
2018-09-08T23:14:30.168Z,17.36
2018-09-08T23:16:58.547Z,17.33
2018-09-08T23:19:26.893Z,17.24
2018-09-08T23:21:55.248Z,17.25
2018-09-08T23:24:23.652Z,17.27
2018-09-08T23:26:51.962Z,17.26
2018-09-08T23:29:20.392Z,17.23
2018-09-08T23:31:48.736Z,17.23
2018-09-08T23:34:17.229Z,17.23
2018-09-08T23:36:45.620Z,17.23
2018-09-08T23:39:14.065Z,17.18
2018-09-08T23:41:42.490Z,17.20
2018-09-08T23:44:10.845Z,17.22
2018-09-08T23:46:39.150Z,17.23
2018-09-08T23:49:07.520Z,17.17
2018-09-08T23:51:35.879Z,17.19
2018-09-08T23:54:04.222Z,17.21
2018-09-08T23:56:32.613Z,17.14
2018-09-08T23:59:02.065Z,17.17
